createdAt,value
2022-11-05T00:01:33.288Z,1.50
2022-11-05T00:04:36.601Z,1.67
2022-11-05T00:07:39.504Z,1.40
2022-11-05T00:10:41.995Z,1.60
2022-11-05T00:13:44.567Z,1.60
2022-11-05T00:16:47.206Z,1.70
2022-11-05T00:19:50.055Z,1.70
2022-11-05T00:22:53.407Z,1.42
2022-11-05T00:25:55.677Z,1.50
2022-11-05T00:28:58.763Z,1.65
2022-11-05T00:32:01.576Z,1.58
2022-11-05T00:35:03.945Z,1.70
2022-11-05T00:38:07.101Z,1.70
2022-11-05T00:41:10.285Z,1.52
2022-11-05T00:44:13.896Z,1.80
2022-11-05T00:47:17.331Z,1.60
2022-11-05T00:50:20.869Z,1.55
2022-11-05T00:53:24.351Z,1.70
2022-11-05T00:56:27.485Z,1.77
2022-11-05T00:59:30.028Z,1.50
2022-11-05T01:02:33.657Z,1.90
2022-11-05T01:05:36.864Z,1.70
2022-11-05T01:08:39.965Z,1.50
2022-11-05T01:11:43.617Z,1.48
2022-11-05T01:14:46.893Z,1.80
2022-11-05T01:17:49.697Z,1.60
2022-11-05T01:20:51.930Z,1.60
2022-11-05T01:23:54.898Z,1.77
2022-11-05T01:26:58.083Z,1.60
2022-11-05T01:30:00.814Z,1.70
2022-11-05T01:33:04.235Z,1.45
2022-11-05T01:36:07.378Z,1.70
2022-11-05T01:39:11.228Z,1.60
2022-11-05T01:42:13.770Z,1.73
2022-11-05T01:45:16.469Z,1.50
2022-11-05T01:48:22.845Z,1.45
2022-11-05T01:51:27.205Z,1.40
2022-11-05T01:54:30.181Z,1.50
2022-11-05T01:57:33.419Z,1.60
2022-11-05T02:00:36.607Z,1.42
2022-11-05T02:03:39.864Z,1.60
2022-11-05T02:06:42.563Z,1.70
2022-11-05T02:09:44.996Z,1.45
2022-11-05T02:12:47.712Z,1.60
2022-11-05T02:15:50.503Z,1.50
2022-11-05T02:18:53.316Z,1.40
2022-11-05T02:21:56.264Z,1.63
2022-11-05T02:24:58.599Z,1.70
2022-11-05T02:28:00.752Z,1.33
2022-11-05T02:31:03.252Z,1.80
2022-11-05T02:34:05.936Z,1.63
2022-11-05T02:37:08.271Z,1.60
2022-11-05T02:40:11.560Z,1.50
2022-11-05T02:43:14.215Z,1.58
2022-11-05T02:46:17.409Z,1.50
2022-11-05T02:49:20.591Z,1.70
2022-11-05T02:52:23.055Z,1.40
2022-11-05T02:55:25.589Z,1.52
2022-11-05T02:58:28.687Z,1.50
2022-11-05T03:01:31.486Z,1.55
2022-11-05T03:04:34.407Z,1.58
2022-11-05T03:07:37.056Z,1.25
2022-11-05T03:10:39.852Z,1.50
2022-11-05T03:13:42.560Z,1.40
2022-11-05T03:16:45.636Z,1.20
2022-11-05T03:19:48.292Z,1.40
2022-11-05T03:22:51.430Z,1.52
2022-11-05T03:25:54.115Z,1.20
2022-11-05T03:28:56.895Z,1.30
2022-11-05T03:31:59.297Z,1.50
2022-11-05T03:35:02.485Z,1.60
2022-11-05T03:38:05.641Z,1.42
2022-11-05T03:41:08.896Z,1.40
2022-11-05T03:44:12.273Z,1.30
2022-11-05T03:47:14.594Z,1.42
2022-11-05T03:50:17.027Z,1.65
2022-11-05T03:53:19.251Z,1.60
2022-11-05T03:56:21.379Z,1.65
2022-11-05T03:59:24.315Z,1.63
2022-11-05T04:02:28.986Z,1.63
2022-11-05T04:05:33.704Z,1.60
2022-11-05T04:08:36.864Z,1.55
2022-11-05T04:11:41.981Z,1.38
2022-11-05T04:14:44.760Z,1.50
2022-11-05T04:17:47.853Z,1.33
2022-11-05T04:20:50.983Z,1.45
2022-11-05T04:23:53.796Z,1.65
2022-11-05T04:26:57.011Z,1.38
2022-11-05T04:30:00.244Z,1.15
2022-11-05T04:33:04.811Z,1.33
2022-11-05T04:36:09.183Z,1.55
2022-11-05T04:39:12.192Z,1.13
2022-11-05T04:42:14.778Z,1.10
2022-11-05T04:45:17.253Z,1.20
2022-11-05T04:48:20.396Z,1.20
2022-11-05T04:51:23.239Z,1.17
2022-11-05T04:54:26.154Z,1.08
2022-11-05T04:57:28.801Z,1.23
2022-11-05T05:00:31.289Z,1.40
2022-11-05T05:03:33.802Z,1.30
2022-11-05T05:06:36.746Z,1.70
2022-11-05T05:09:39.724Z,1.45
2022-11-05T05:12:42.958Z,1.30
2022-11-05T05:15:45.665Z,1.30
2022-11-05T05:18:48.106Z,1.30
2022-11-05T05:21:50.624Z,1.40
2022-11-05T05:24:54.120Z,1.20
2022-11-05T05:27:57.403Z,1.38
2022-11-05T05:30:59.573Z,1.25
2022-11-05T05:34:01.740Z,1.40
2022-11-05T05:37:04.385Z,1.38
2022-11-05T05:40:06.978Z,1.42
2022-11-05T05:43:10.565Z,1.20
2022-11-05T05:46:13.866Z,1.10
2022-11-05T05:49:16.584Z,1.35
2022-11-05T05:52:19.691Z,1.40
2022-11-05T05:55:22.479Z,1.38
2022-11-05T05:58:25.320Z,1.20
2022-11-05T06:01:28.210Z,0.98
2022-11-05T06:04:31.323Z,1.00
2022-11-05T06:07:37.236Z,1.20
2022-11-05T06:10:39.981Z,1.20
2022-11-05T06:13:42.256Z,1.17
2022-11-05T06:16:45.124Z,1.20
2022-11-05T06:19:47.984Z,1.27
2022-11-05T06:22:50.859Z,1.10
2022-11-05T06:25:53.255Z,1.00
2022-11-05T06:28:56.159Z,1.20
2022-11-05T06:31:59.362Z,1.25
2022-11-05T06:35:02.468Z,1.10
2022-11-05T06:38:05.677Z,1.02
2022-11-05T06:41:10.492Z,1.25
2022-11-05T06:44:13.425Z,1.30
2022-11-05T06:47:16.168Z,1.27
2022-11-05T06:50:19.398Z,1.30
2022-11-05T06:53:22.058Z,1.15
2022-11-05T06:56:24.737Z,1.48
2022-11-05T06:59:26.983Z,1.20
2022-11-05T07:02:30.040Z,1.20
2022-11-05T07:05:32.157Z,1.40
2022-11-05T07:08:34.542Z,1.10
2022-11-05T07:11:37.535Z,1.30
2022-11-05T07:14:40.371Z,1.25
2022-11-05T07:17:43.100Z,1.20
2022-11-05T07:20:46.016Z,1.10
2022-11-05T07:23:49.196Z,1.15
2022-11-05T07:26:52.172Z,1.00
2022-11-05T07:29:54.624Z,1.30
2022-11-05T07:32:57.765Z,1.10
2022-11-05T07:36:00.450Z,1.10
2022-11-05T07:39:03.391Z,1.10
2022-11-05T07:42:05.900Z,1.10
2022-11-05T07:45:09.735Z,1.10
2022-11-05T07:48:12.622Z,1.20
2022-11-05T07:51:15.020Z,1.15
2022-11-05T07:54:17.533Z,1.10
2022-11-05T07:57:20.326Z,1.10
2022-11-05T08:00:23.521Z,1.10
2022-11-05T08:03:27.158Z,1.00
2022-11-05T08:06:29.922Z,1.13
2022-11-05T08:09:33.131Z,1.25
2022-11-05T08:12:36.117Z,1.20
2022-11-05T08:15:39.538Z,1.30
2022-11-05T08:18:42.375Z,1.23
2022-11-05T08:21:44.896Z,1.30
2022-11-05T08:24:47.043Z,1.20
2022-11-05T08:27:49.608Z,1.60
2022-11-05T08:30:52.402Z,1.10
2022-11-05T08:34:01.301Z,1.38
2022-11-05T08:37:04.786Z,1.40
2022-11-05T08:40:07.378Z,1.35
2022-11-05T08:43:10.672Z,1.40
2022-11-05T08:46:13.720Z,1.30
2022-11-05T08:52:35.319Z,1.33
2022-11-05T08:55:38.515Z,1.30
2022-11-05T08:58:41.896Z,1.20
2022-11-05T09:01:45.357Z,1.25
2022-11-05T09:04:48.349Z,1.13
2022-11-05T09:07:54.099Z,1.17
2022-11-05T09:10:58.441Z,1.40
2022-11-05T09:14:01.080Z,1.40
2022-11-05T09:17:06.817Z,1.40
2022-11-05T09:20:09.888Z,1.08
2022-11-05T09:23:13.237Z,1.50
2022-11-05T09:26:16.314Z,1.27
2022-11-05T09:29:19.242Z,1.27
2022-11-05T09:32:22.040Z,1.08
2022-11-05T09:35:24.798Z,1.33
2022-11-05T09:38:28.396Z,1.40
2022-11-05T09:41:31.593Z,1.40
2022-11-05T09:44:34.416Z,1.45
2022-11-05T09:47:36.846Z,1.60
2022-11-05T09:50:40.233Z,1.33
2022-11-05T09:53:43.641Z,1.17
2022-11-05T09:56:46.232Z,1.58
2022-11-05T09:59:48.777Z,1.50
2022-11-05T10:02:51.672Z,1.38
2022-11-05T10:05:53.864Z,1.40
2022-11-05T10:08:56.006Z,1.40
2022-11-05T10:11:57.930Z,1.48
2022-11-05T10:15:00.613Z,1.60
2022-11-05T10:18:03.261Z,1.55
2022-11-05T10:21:06.047Z,1.60
2022-11-05T10:24:09.276Z,1.50
2022-11-05T10:27:12.055Z,1.55
2022-11-05T10:30:14.571Z,1.35
2022-11-05T10:33:17.509Z,1.45
2022-11-05T10:36:20.168Z,1.70
2022-11-05T10:39:22.971Z,1.40
2022-11-05T10:42:25.959Z,1.60
2022-11-05T10:45:28.655Z,1.50
2022-11-05T10:48:31.815Z,1.52
2022-11-05T10:51:34.650Z,1.50
2022-11-05T10:54:36.860Z,1.50
2022-11-05T10:57:39.478Z,1.52
2022-11-05T11:00:43.013Z,1.85
2022-11-05T11:03:45.844Z,1.52
2022-11-05T11:06:48.555Z,1.45
2022-11-05T11:09:51.083Z,1.67
2022-11-05T11:12:56.418Z,1.50
2022-11-05T11:15:59.582Z,1.73
2022-11-05T11:19:02.761Z,1.70
2022-11-05T11:22:07.201Z,1.77
2022-11-05T11:25:10.157Z,1.60
2022-11-05T11:28:12.651Z,1.60
2022-11-05T11:31:15.725Z,1.70
2022-11-05T11:34:19.077Z,1.50
2022-11-05T11:37:22.066Z,1.60
2022-11-05T11:40:25.415Z,1.88
2022-11-05T11:43:29.229Z,1.77
2022-11-05T11:46:32.564Z,1.70
2022-11-05T11:49:35.583Z,1.80
2022-11-05T11:52:38.655Z,1.90
2022-11-05T11:55:41.609Z,1.52
2022-11-05T11:58:44.039Z,2.00
2022-11-05T12:01:46.952Z,1.70
2022-11-05T12:04:49.456Z,1.70
2022-11-05T12:07:52.496Z,1.75
2022-11-05T12:10:54.880Z,1.83
2022-11-05T12:13:57.498Z,1.70
2022-11-05T12:17:00.437Z,1.70
2022-11-05T12:20:02.995Z,1.60
2022-11-05T12:23:05.437Z,1.90
2022-11-05T12:26:09.794Z,1.77
2022-11-05T12:29:18.964Z,1.85
2022-11-05T12:32:25.163Z,2.05
2022-11-05T12:35:28.335Z,1.73
2022-11-05T12:38:32.542Z,1.70
2022-11-05T12:41:37.099Z,2.00
2022-11-05T12:44:39.584Z,1.65
2022-11-05T12:47:42.462Z,1.77
2022-11-05T12:50:45.336Z,1.60
2022-11-05T12:53:48.074Z,1.95
2022-11-05T12:56:50.569Z,1.90
2022-11-05T12:59:53.025Z,1.67
2022-11-05T13:02:55.422Z,1.63
2022-11-05T13:06:02.922Z,1.77
2022-11-05T13:09:07.588Z,2.08
2022-11-05T13:12:10.546Z,1.83
2022-11-05T13:15:13.437Z,1.85
2022-11-05T13:18:16.100Z,1.63
2022-11-05T13:21:18.409Z,2.00
2022-11-05T13:24:21.588Z,1.83
2022-11-05T13:27:24.084Z,1.60
2022-11-05T13:30:26.675Z,1.80
2022-11-05T13:33:29.339Z,1.85
2022-11-05T13:36:31.484Z,1.58
2022-11-05T13:39:34.207Z,1.60
2022-11-05T13:42:37.388Z,2.00
2022-11-05T13:45:40.374Z,1.77
2022-11-05T13:48:43.194Z,1.67
2022-11-05T13:51:45.332Z,1.65
2022-11-05T13:54:47.487Z,1.67
2022-11-05T13:57:49.695Z,1.58
2022-11-05T14:00:52.200Z,1.80
2022-11-05T14:03:55.466Z,1.90
2022-11-05T14:06:58.708Z,1.70
2022-11-05T14:10:01.576Z,1.55
2022-11-05T14:13:04.403Z,1.70
2022-11-05T14:16:06.959Z,1.73
2022-11-05T14:19:09.142Z,1.90
2022-11-05T14:22:11.325Z,1.80
2022-11-05T14:25:13.973Z,1.80
2022-11-05T14:28:17.446Z,1.65
2022-11-05T14:31:20.262Z,1.50
2022-11-05T14:34:23.179Z,1.63
2022-11-05T14:37:25.622Z,1.63
2022-11-05T14:40:28.200Z,1.60
2022-11-05T14:43:30.985Z,1.55
2022-11-05T14:46:34.885Z,1.70
2022-11-05T14:49:38.995Z,1.70
2022-11-05T14:52:42.628Z,1.60
2022-11-05T14:55:45.973Z,1.80
2022-11-05T14:58:49.030Z,1.60
2022-11-05T15:01:52.310Z,1.80
2022-11-05T15:04:54.735Z,1.70
2022-11-05T15:07:57.140Z,1.60
2022-11-05T15:10:59.847Z,1.75
2022-11-05T15:14:02.101Z,2.08
2022-11-05T15:17:05.129Z,2.17
2022-11-05T15:20:08.299Z,1.90
2022-11-05T15:23:11.516Z,2.00
2022-11-05T15:26:13.932Z,1.98
2022-11-05T15:29:16.418Z,1.70
2022-11-05T15:32:19.019Z,2.10
2022-11-05T15:35:22.127Z,1.90
2022-11-05T15:38:25.100Z,1.63
2022-11-05T15:41:28.841Z,1.98
2022-11-05T15:44:32.480Z,1.63
2022-11-05T15:47:35.402Z,1.65
2022-11-05T15:50:38.312Z,1.85
2022-11-05T15:54:01.676Z,1.70
2022-11-05T15:57:03.335Z,1.60
2022-11-05T16:00:06.503Z,1.70
2022-11-05T16:03:09.683Z,1.90
2022-11-05T16:06:12.681Z,1.83
2022-11-05T16:09:16.031Z,1.70
2022-11-05T16:12:19.302Z,1.33
2022-11-05T16:15:21.984Z,1.80
2022-11-05T16:18:25.816Z,1.80
2022-11-05T16:21:29.035Z,1.92
2022-11-05T16:24:32.159Z,1.60
2022-11-05T16:27:34.964Z,1.45
2022-11-05T16:30:37.651Z,1.60
2022-11-05T16:33:40.347Z,1.58
2022-11-05T16:36:42.716Z,1.58
2022-11-05T16:39:45.031Z,1.90
2022-11-05T16:42:47.708Z,1.55
2022-11-05T16:45:49.562Z,1.50
2022-11-05T16:48:52.234Z,1.50
2022-11-05T16:51:54.332Z,1.77
2022-11-05T16:54:56.516Z,1.42
2022-11-05T16:57:58.968Z,1.70
2022-11-05T17:01:01.872Z,1.48
2022-11-05T17:04:04.336Z,1.40
2022-11-05T17:07:07.138Z,1.70
2022-11-05T17:10:10.392Z,1.35
2022-11-05T17:13:12.666Z,1.35
2022-11-05T17:16:17.308Z,1.40
2022-11-05T17:19:19.984Z,1.75
2022-11-05T17:22:22.552Z,1.80
2022-11-05T17:25:25.055Z,1.52
2022-11-05T17:28:27.976Z,1.60
2022-11-05T17:31:30.793Z,1.80
2022-11-05T17:34:33.861Z,1.67
2022-11-05T17:37:36.840Z,1.65
2022-11-05T17:40:42.123Z,1.60
2022-11-05T17:43:45.158Z,1.80
2022-11-05T17:46:48.052Z,1.40
2022-11-05T17:49:51.047Z,1.70
2022-11-05T17:52:54.292Z,1.60
2022-11-05T17:55:57.543Z,1.50
2022-11-05T17:59:00.365Z,1.58
2022-11-05T18:02:03.296Z,1.52
2022-11-05T18:05:06.255Z,1.83
2022-11-05T18:08:08.716Z,1.67
2022-11-05T18:11:11.717Z,1.73
2022-11-05T18:14:16.755Z,1.50
2022-11-05T18:17:22.700Z,1.55
2022-11-05T18:20:25.997Z,2.00
2022-11-05T18:23:28.423Z,1.63
2022-11-05T18:26:30.916Z,1.50
2022-11-05T18:29:33.766Z,1.50
2022-11-05T18:32:36.409Z,1.70
2022-11-05T18:35:38.824Z,1.70
2022-11-05T18:38:41.833Z,1.70
2022-11-05T18:41:44.773Z,1.67
2022-11-05T18:44:47.879Z,1.80
2022-11-05T18:47:50.750Z,1.70
2022-11-05T18:50:57.778Z,1.50
2022-11-05T18:54:04.570Z,1.85
2022-11-05T18:57:07.146Z,1.50
2022-11-05T19:00:09.319Z,1.50
2022-11-05T19:03:12.469Z,1.42
2022-11-05T19:06:15.238Z,1.80
2022-11-05T19:09:17.713Z,1.60
2022-11-05T19:12:20.345Z,1.70
2022-11-05T19:15:22.536Z,1.60
2022-11-05T19:18:25.436Z,1.70
2022-11-05T19:21:27.978Z,2.08
2022-11-05T19:24:31.156Z,1.60
2022-11-05T19:27:34.188Z,1.80
2022-11-05T19:30:36.553Z,1.90
2022-11-05T19:33:39.374Z,1.60
2022-11-05T19:36:42.320Z,1.80
2022-11-05T19:39:45.025Z,1.83
2022-11-05T19:42:47.923Z,1.60
2022-11-05T19:45:50.874Z,1.80
2022-11-05T19:48:53.719Z,1.80
2022-11-05T19:51:56.263Z,1.80
2022-11-05T19:54:58.913Z,1.60
2022-11-05T19:58:01.895Z,1.80
2022-11-05T20:01:05.255Z,1.70
2022-11-05T20:04:07.855Z,1.50
2022-11-05T20:07:10.275Z,1.73
2022-11-05T20:10:12.847Z,1.60
2022-11-05T20:13:19.699Z,1.35
2022-11-05T20:16:23.144Z,1.60
2022-11-05T20:19:27.180Z,1.50
2022-11-05T20:22:30.483Z,1.45
2022-11-05T20:25:33.144Z,1.70
2022-11-05T20:28:35.716Z,1.60
2022-11-05T20:31:38.522Z,1.50
2022-11-05T20:34:41.349Z,1.70
2022-11-05T20:37:43.783Z,1.80
2022-11-05T20:40:46.764Z,1.58
2022-11-05T20:43:49.593Z,1.52
2022-11-05T20:46:52.022Z,1.95
2022-11-05T20:49:54.494Z,1.50
2022-11-05T20:52:57.055Z,1.92
2022-11-05T20:56:02.561Z,1.88
2022-11-05T20:59:09.542Z,1.80
2022-11-05T21:02:12.672Z,1.73
2022-11-05T21:05:16.774Z,1.77
2022-11-05T21:08:20.290Z,1.60
2022-11-05T21:11:25.315Z,1.83
2022-11-05T21:14:27.720Z,1.80
2022-11-05T21:17:29.880Z,1.70
2022-11-05T21:20:32.399Z,1.75
2022-11-05T21:23:34.609Z,1.70
2022-11-05T21:26:37.407Z,1.70
2022-11-05T21:29:40.703Z,2.00
2022-11-05T21:32:44.387Z,1.80
2022-11-05T21:35:47.705Z,2.00
2022-11-05T21:38:50.447Z,2.00
2022-11-05T21:41:53.335Z,2.10
2022-11-05T21:45:00.272Z,2.00
2022-11-05T21:48:02.946Z,1.83
2022-11-05T21:51:06.071Z,2.10
2022-11-05T21:54:09.426Z,2.10
2022-11-05T21:57:11.663Z,2.20
2022-11-05T22:00:14.313Z,2.10
2022-11-05T22:03:17.107Z,2.15
2022-11-05T22:06:19.984Z,2.08
2022-11-05T22:09:23.147Z,2.10
2022-11-05T22:12:25.736Z,2.40
2022-11-05T22:15:29.045Z,2.28
2022-11-05T22:18:32.451Z,2.10
2022-11-05T22:21:35.423Z,2.30
2022-11-05T22:24:38.707Z,2.10
2022-11-05T22:27:41.550Z,2.10
2022-11-05T22:30:44.213Z,2.00
2022-11-05T22:33:46.602Z,2.10
2022-11-05T22:36:48.829Z,2.15
2022-11-05T22:39:51.748Z,2.25
2022-11-05T22:42:54.812Z,2.20
2022-11-05T22:45:56.955Z,1.98
2022-11-05T22:48:59.138Z,2.10
2022-11-05T22:52:01.455Z,2.30
2022-11-05T22:55:05.237Z,2.22
2022-11-05T22:58:08.125Z,2.78
2022-11-05T23:01:11.058Z,2.15
2022-11-05T23:04:14.217Z,2.40
2022-11-05T23:07:17.184Z,2.22
2022-11-05T23:10:20.016Z,2.13
2022-11-05T23:13:26.948Z,2.25
2022-11-05T23:16:30.080Z,2.00
2022-11-05T23:19:33.010Z,2.30
2022-11-05T23:22:35.513Z,1.90
2022-11-05T23:25:38.059Z,1.92
2022-11-05T23:28:40.798Z,2.05
2022-11-05T23:31:43.392Z,2.05
2022-11-05T23:34:45.549Z,2.00
2022-11-05T23:37:47.816Z,2.10
2022-11-05T23:40:50.019Z,2.00
2022-11-05T23:43:52.203Z,2.38
2022-11-05T23:46:54.385Z,2.10
2022-11-05T23:49:57.037Z,2.10
2022-11-05T23:52:59.494Z,2.10
2022-11-05T23:56:02.353Z,2.00
2022-11-05T23:59:04.988Z,1.90
